Capt. Andy Lake — WDG4759 — position and weather

sailwx.info

Track history (hours):
 
Tides and Currents Weather Stations Pressure Air Temp Water Temp Dewpoint Dewpoint Depression Visibility Wind Speed Wind Dir Waves Ship Positions

Capt. Andy Lake

Owner: Florida Marine, LLC, Mandeville, LA. More information available from US FCC via Universal Licensing System and Coast Guard Vessel Documentation Center.

Last reported at 2017-Nov-20 00:30 UTC. Time now 2017-Nov-23 18:43 UTC.
Position N 30°08' W 093°19'.

Length 27 m; draft 2.9 m.

Type: Other ship. MMSI: 367539810.

Date/timePositionNaut miles runAvg speedWind from/ knotsBaromVisibWave heightAir tempDewpointWater temp
2017-Nov-20 00:30N 30°08' W 093°19'0 0.0
2017-Nov-20 00:00N 30°08' W 093°19'0 0.0
2017-Nov-19 23:30N 30°08' W 093°19'0 0.0
2017-Nov-19 23:00N 30°08' W 093°19'0 0.0
2017-Nov-19 22:30N 30°08' W 093°19'0 0.0
2017-Nov-19 22:00N 30°08' W 093°19'0 0.0
2017-Nov-19 21:30N 30°08' W 093°19'0 0.0
2017-Nov-19 21:00N 30°08' W 093°19'0 0.0
2017-Nov-19 20:30N 30°08' W 093°19'0 0.0
2017-Nov-19 20:00N 30°08' W 093°19'0 0.0
2017-Nov-19 19:30N 30°08' W 093°19'0 0.0
2017-Nov-19 19:00N 30°08' W 093°19'0 0.2
2017-Nov-19 18:30N 30°08' W 093°19'0 0.1
2017-Nov-19 18:00N 30°08' W 093°19'0 0.0
2017-Nov-19 17:30N 30°08' W 093°19'0 0.0
2017-Nov-19 17:00N 30°08' W 093°19'0 0.0
2017-Nov-19 16:30N 30°08' W 093°19'0 0.0
2017-Nov-19 16:00N 30°08' W 093°19'0 0.0
2017-Nov-19 15:30N 30°08' W 093°19'0 0.0
2017-Nov-19 15:00N 30°08' W 093°19'0 0.0
2017-Nov-19 14:30N 30°08' W 093°19'0 0.0
2017-Nov-19 14:00N 30°08' W 093°19'0 0.0
2017-Nov-19 13:30N 30°08' W 093°19'0 0.0
2017-Nov-19 13:00N 30°08' W 093°19'0 0.0
2017-Nov-19 12:30N 30°08' W 093°19'0 0.0
2017-Nov-19 12:00N 30°08' W 093°19'0 0.0
2017-Nov-19 11:30N 30°08' W 093°19'0 0.0
2017-Nov-19 11:00N 30°08' W 093°19'0 0.0
2017-Nov-19 10:30N 30°08' W 093°19'0 0.0
2017-Nov-19 10:00N 30°08' W 093°19'0 0.0
2017-Nov-19 09:30N 30°08' W 093°19'0 0.0
2017-Nov-19 09:00N 30°08' W 093°19'0 0.0
2017-Nov-19 08:30N 30°08' W 093°19'0 0.0
2017-Nov-19 08:00N 30°08' W 093°19'0 0.0
2017-Nov-19 07:30N 30°08' W 093°19'0 0.0
2017-Nov-19 07:00N 30°08' W 093°19'0 0.0
2017-Nov-19 06:30N 30°08' W 093°19'0 0.0
2017-Nov-19 06:00N 30°08' W 093°19'0 0.0
2017-Nov-19 05:30N 30°08' W 093°19'0 0.0
2017-Nov-19 05:00N 30°08' W 093°19'0 0.0
2017-Nov-19 04:30N 30°08' W 093°19'0 0.0
2017-Nov-19 04:00N 30°08' W 093°19'0 0.0
2017-Nov-19 03:30N 30°08' W 093°19'0 0.0
2017-Nov-19 03:00N 30°08' W 093°19'0 0.0
2017-Nov-19 02:30N 30°08' W 093°19'0 0.0
2017-Nov-19 02:00N 30°08' W 093°19'0 0.0
2017-Nov-19 01:30N 30°08' W 093°19'0 0.0
2017-Nov-19 01:00N 30°08' W 093°19'0 0.0
2017-Nov-19 00:30N 30°08' W 093°20'0 0.0
2017-Nov-19 00:00N 30°08' W 093°19'0 0.0
2017-Nov-18 23:30N 30°08' W 093°20'0 0.0
2017-Nov-18 23:00N 30°08' W 093°20'0 0.0
2017-Nov-18 22:30N 30°08' W 093°20'0 0.1
2017-Nov-18 22:00N 30°08' W 093°19'0 0.1
2017-Nov-18 21:30N 30°08' W 093°19'0 0.0
2017-Nov-18 21:00N 30°08' W 093°19'0 0.0
2017-Nov-18 20:30N 30°08' W 093°19'0 0.1
2017-Nov-18 20:00N 30°08' W 093°19'0 0.0
2017-Nov-18 19:30N 30°08' W 093°19'0 0.0
2017-Nov-18 19:00N 30°08' W 093°19'0 0.0
2017-Nov-18 18:30N 30°08' W 093°19'0 0.0
2017-Nov-18 18:00N 30°08' W 093°19'0 0.0
2017-Nov-18 17:30N 30°08' W 093°19'0 0.0
2017-Nov-18 17:00N 30°08' W 093°19'0 0.0
2017-Nov-18 16:30N 30°08' W 093°19'0 0.8
2017-Nov-18 16:00N 30°08' W 093°20'1 1.2
2017-Nov-18 15:30N 30°07' W 093°20'2 3.7
2017-Nov-18 15:00N 30°05' W 093°20'2 4.0
2017-Nov-18 14:30N 30°04' W 093°21'2 4.1
2017-Nov-18 14:00N 30°04' W 093°23'2 4.9
2017-Nov-18 13:30N 30°04' W 093°26'2 4.8
2017-Nov-18 13:00N 30°04' W 093°29'2 4.4
2017-Nov-18 12:30N 30°04' W 093°31'  
Track history (hours):
 
Tides and Currents Weather Stations Pressure Air Temp Water Temp Dewpoint Dewpoint Depression Visibility Wind Speed Wind Dir Waves Ship Positions

Capt. Andy Lake

Owner: Florida Marine, LLC, Mandeville, LA. More information available from US FCC via Universal Licensing System and Coast Guard Vessel Documentation Center.

Last reported at 2017-Nov-20 00:30 UTC. Time now 2017-Nov-23 18:43 UTC.
Position N 30°08' W 093°19'.

Length 27 m; draft 2.9 m.

Type: Other ship. MMSI: 367539810.

Date/timePositionNaut miles runAvg speedWind from/ knotsBaromVisibWave heightAir tempDewpointWater temp
2017-Nov-20 00:30N 30°08' W 093°19'0 0.0
2017-Nov-20 00:00N 30°08' W 093°19'0 0.0
2017-Nov-19 23:30N 30°08' W 093°19'0 0.0
2017-Nov-19 23:00N 30°08' W 093°19'0 0.0
2017-Nov-19 22:30N 30°08' W 093°19'0 0.0
2017-Nov-19 22:00N 30°08' W 093°19'0 0.0
2017-Nov-19 21:30N 30°08' W 093°19'0 0.0
2017-Nov-19 21:00N 30°08' W 093°19'0 0.0
2017-Nov-19 20:30N 30°08' W 093°19'0 0.0
2017-Nov-19 20:00N 30°08' W 093°19'0 0.0
2017-Nov-19 19:30N 30°08' W 093°19'0 0.0
2017-Nov-19 19:00N 30°08' W 093°19'0 0.2
2017-Nov-19 18:30N 30°08' W 093°19'0 0.1
2017-Nov-19 18:00N 30°08' W 093°19'0 0.0
2017-Nov-19 17:30N 30°08' W 093°19'0 0.0
2017-Nov-19 17:00N 30°08' W 093°19'0 0.0
2017-Nov-19 16:30N 30°08' W 093°19'0 0.0
2017-Nov-19 16:00N 30°08' W 093°19'0 0.0
2017-Nov-19 15:30N 30°08' W 093°19'0 0.0
2017-Nov-19 15:00N 30°08' W 093°19'0 0.0
2017-Nov-19 14:30N 30°08' W 093°19'0 0.0
2017-Nov-19 14:00N 30°08' W 093°19'0 0.0
2017-Nov-19 13:30N 30°08' W 093°19'0 0.0
2017-Nov-19 13:00N 30°08' W 093°19'0 0.0
2017-Nov-19 12:30N 30°08' W 093°19'0 0.0
2017-Nov-19 12:00N 30°08' W 093°19'0 0.0
2017-Nov-19 11:30N 30°08' W 093°19'0 0.0
2017-Nov-19 11:00N 30°08' W 093°19'0 0.0
2017-Nov-19 10:30N 30°08' W 093°19'0 0.0
2017-Nov-19 10:00N 30°08' W 093°19'0 0.0
2017-Nov-19 09:30N 30°08' W 093°19'0 0.0
2017-Nov-19 09:00N 30°08' W 093°19'0 0.0
2017-Nov-19 08:30N 30°08' W 093°19'0 0.0
2017-Nov-19 08:00N 30°08' W 093°19'0 0.0
2017-Nov-19 07:30N 30°08' W 093°19'0 0.0
2017-Nov-19 07:00N 30°08' W 093°19'0 0.0
2017-Nov-19 06:30N 30°08' W 093°19'0 0.0
2017-Nov-19 06:00N 30°08' W 093°19'0 0.0
2017-Nov-19 05:30N 30°08' W 093°19'0 0.0
2017-Nov-19 05:00N 30°08' W 093°19'0 0.0
2017-Nov-19 04:30N 30°08' W 093°19'0 0.0
2017-Nov-19 04:00N 30°08' W 093°19'0 0.0
2017-Nov-19 03:30N 30°08' W 093°19'0 0.0
2017-Nov-19 03:00N 30°08' W 093°19'0 0.0
2017-Nov-19 02:30N 30°08' W 093°19'0 0.0
2017-Nov-19 02:00N 30°08' W 093°19'0 0.0
2017-Nov-19 01:30N 30°08' W 093°19'0 0.0
2017-Nov-19 01:00N 30°08' W 093°19'0 0.0
2017-Nov-19 00:30N 30°08' W 093°20'0 0.0
2017-Nov-19 00:00N 30°08' W 093°19'0 0.0
2017-Nov-18 23:30N 30°08' W 093°20'0 0.0
2017-Nov-18 23:00N 30°08' W 093°20'0 0.0
2017-Nov-18 22:30N 30°08' W 093°20'0 0.1
2017-Nov-18 22:00N 30°08' W 093°19'0 0.1
2017-Nov-18 21:30N 30°08' W 093°19'0 0.0
2017-Nov-18 21:00N 30°08' W 093°19'0 0.0
2017-Nov-18 20:30N 30°08' W 093°19'0 0.1
2017-Nov-18 20:00N 30°08' W 093°19'0 0.0
2017-Nov-18 19:30N 30°08' W 093°19'0 0.0
2017-Nov-18 19:00N 30°08' W 093°19'0 0.0
2017-Nov-18 18:30N 30°08' W 093°19'0 0.0
2017-Nov-18 18:00N 30°08' W 093°19'0 0.0
2017-Nov-18 17:30N 30°08' W 093°19'0 0.0
2017-Nov-18 17:00N 30°08' W 093°19'0 0.0
2017-Nov-18 16:30N 30°08' W 093°19'0 0.8
2017-Nov-18 16:00N 30°08' W 093°20'1 1.2
2017-Nov-18 15:30N 30°07' W 093°20'2 3.7
2017-Nov-18 15:00N 30°05' W 093°20'2 4.0
2017-Nov-18 14:30N 30°04' W 093°21'2 4.1
2017-Nov-18 14:00N 30°04' W 093°23'2 4.9
2017-Nov-18 13:30N 30°04' W 093°26'2 4.8
2017-Nov-18 13:00N 30°04' W 093°29'2 4.4
2017-Nov-18 12:30N 30°04' W 093°31'  

Dump ship's entire track history